Overseas Houston — WWAA — position and weather

sailwx.info

Track history (hours):
 
Tides and Currents Weather Stations Pressure Air Temp Water Temp Dewpoint Dewpoint Depression Visibility Wind Speed Wind Dir Waves Ship Positions

Overseas Houston

Owner: ASC Leasing I, Inc., Philadelphia, PA. More information available from US FCC via Universal Licensing System and Coast Guard Vessel Documentation Center.

Last reported at 2014-Oct-20 10:33 UTC. Time now 2014-Oct-20 11:30 UTC.
Position N 27°36' W 082°54'.

Type: Tanker. MMSI: 367109000.

Date/timePositionNaut miles runAvg speedWind from/ knotsBaromVisibWave heightAir tempDewpointWater temp
2014-Oct-20 10:33N 27°36' W 082°54'9 8.9
2014-Oct-20 09:33N 27°36' W 083°04'  
2014-Oct-17 05:33N 29°60' W 090°24'6 5.9
2014-Oct-17 04:31N 29°57' W 090°18'  
2014-Oct-14 23:03N 27°36' W 083°10'714.9
2014-Oct-14 22:33N 27°36' W 083°02'1312.7
2014-Oct-14 21:33N 27°37' W 082°48'1111.4
2014-Oct-14 20:33N 27°40' W 082°36'9 8.9
2014-Oct-14 19:33N 27°49' W 082°34'3 2.7
2014-Oct-14 18:32N 27°52' W 082°33'0 0.0
2014-Oct-14 17:32N 27°52' W 082°33'0 0.0
2014-Oct-14 16:32N 27°52' W 082°33'0 0.0
2014-Oct-14 15:32N 27°52' W 082°33'0 0.0
2014-Oct-14 14:32N 27°52' W 082°33'0 0.0
2014-Oct-14 13:32N 27°52' W 082°33'0 0.0
2014-Oct-14 12:32N 27°52' W 082°33'0 0.0
2014-Oct-14 11:32N 27°52' W 082°33'0 0.0
2014-Oct-14 10:29N 27°52' W 082°33'0 0.0
2014-Oct-14 09:32N 27°52' W 082°33'0 0.0
2014-Oct-14 08:32N 27°52' W 082°33'0 0.0
2014-Oct-14 07:32N 27°52' W 082°33'0 0.0
2014-Oct-14 06:32N 27°52' W 082°33'0 0.0
2014-Oct-14 05:32N 27°52' W 082°33'0 0.0
2014-Oct-14 04:32N 27°52' W 082°33'0 0.0
2014-Oct-14 03:32N 27°52' W 082°33'0 0.0
2014-Oct-14 02:32N 27°52' W 082°33'0 0.0
2014-Oct-14 01:31N 27°52' W 082°33'0 0.0
2014-Oct-14 00:31N 27°52' W 082°33'0 0.0
2014-Oct-13 23:31N 27°52' W 082°33'0 0.0
2014-Oct-13 22:31N 27°52' W 082°33'0 0.0
2014-Oct-13 21:31N 27°52' W 082°33'0 0.0
2014-Oct-13 20:31N 27°52' W 082°33'0 0.0
2014-Oct-13 19:31N 27°52' W 082°33'0 0.3
2014-Oct-13 18:33N 27°52' W 082°33'5 4.8
2014-Oct-13 17:34N 27°47' W 082°32'9 8.8
2014-Oct-13 16:33N 27°55' W 082°27'0 0.4
2014-Oct-13 15:31N 27°55' W 082°27'0 0.0
2014-Oct-13 14:31N 27°55' W 082°27'0 0.0
2014-Oct-13 13:31N 27°55' W 082°27'0 0.0
2014-Oct-13 12:31N 27°55' W 082°27'0 0.0
2014-Oct-13 11:28N 27°55' W 082°27'0 0.0
2014-Oct-13 10:31N 27°55' W 082°27'0 0.0
2014-Oct-13 09:31N 27°55' W 082°27'0 0.0
2014-Oct-13 08:25N 27°55' W 082°27'0 0.0
2014-Oct-13 07:31N 27°55' W 082°27'0 0.0
2014-Oct-13 06:31N 27°55' W 082°27'0 0.0
2014-Oct-13 05:31N 27°55' W 082°27'0 0.0
2014-Oct-13 04:31N 27°55' W 082°27'0 0.0
2014-Oct-13 03:31N 27°55' W 082°27'0 0.0
2014-Oct-13 02:31N 27°55' W 082°27'0 0.0
2014-Oct-13 01:34N 27°55' W 082°27'0 0.0
2014-Oct-13 00:33N 27°55' W 082°27'0 0.0
2014-Oct-12 23:33N 27°55' W 082°27'0 0.0
2014-Oct-12 22:33N 27°55' W 082°27'0 0.0
2014-Oct-12 21:33N 27°55' W 082°27'0 0.0
2014-Oct-12 20:33N 27°55' W 082°27'0 0.3
2014-Oct-12 19:33N 27°55' W 082°27'9 8.6
2014-Oct-12 18:33N 27°47' W 082°31'1212.0
2014-Oct-12 17:33N 27°37' W 082°39'1212.5
2014-Oct-12 16:33N 27°36' W 082°53'1010.0
2014-Oct-12 15:32N 27°36' W 083°04'40011.7
2014-Oct-11 05:28N 29°55' W 090°12'9 9.6
2014-Oct-11 04:30N 29°57' W 090°23'4 2.5
2014-Oct-11 03:07N 29°60' W 090°24'  
Track history (hours):
 
Tides and Currents Weather Stations Pressure Air Temp Water Temp Dewpoint Dewpoint Depression Visibility Wind Speed Wind Dir Waves Ship Positions

Overseas Houston

Owner: ASC Leasing I, Inc., Philadelphia, PA. More information available from US FCC via Universal Licensing System and Coast Guard Vessel Documentation Center.

Last reported at 2014-Oct-20 10:33 UTC. Time now 2014-Oct-20 11:30 UTC.
Position N 27°36' W 082°54'.

Type: Tanker. MMSI: 367109000.

Date/timePositionNaut miles runAvg speedWind from/ knotsBaromVisibWave heightAir tempDewpointWater temp
2014-Oct-20 10:33N 27°36' W 082°54'9 8.9
2014-Oct-20 09:33N 27°36' W 083°04'  
2014-Oct-17 05:33N 29°60' W 090°24'6 5.9
2014-Oct-17 04:31N 29°57' W 090°18'  
2014-Oct-14 23:03N 27°36' W 083°10'714.9
2014-Oct-14 22:33N 27°36' W 083°02'1312.7
2014-Oct-14 21:33N 27°37' W 082°48'1111.4
2014-Oct-14 20:33N 27°40' W 082°36'9 8.9
2014-Oct-14 19:33N 27°49' W 082°34'3 2.7
2014-Oct-14 18:32N 27°52' W 082°33'0 0.0
2014-Oct-14 17:32N 27°52' W 082°33'0 0.0
2014-Oct-14 16:32N 27°52' W 082°33'0 0.0
2014-Oct-14 15:32N 27°52' W 082°33'0 0.0
2014-Oct-14 14:32N 27°52' W 082°33'0 0.0
2014-Oct-14 13:32N 27°52' W 082°33'0 0.0
2014-Oct-14 12:32N 27°52' W 082°33'0 0.0
2014-Oct-14 11:32N 27°52' W 082°33'0 0.0
2014-Oct-14 10:29N 27°52' W 082°33'0 0.0
2014-Oct-14 09:32N 27°52' W 082°33'0 0.0
2014-Oct-14 08:32N 27°52' W 082°33'0 0.0
2014-Oct-14 07:32N 27°52' W 082°33'0 0.0
2014-Oct-14 06:32N 27°52' W 082°33'0 0.0
2014-Oct-14 05:32N 27°52' W 082°33'0 0.0
2014-Oct-14 04:32N 27°52' W 082°33'0 0.0
2014-Oct-14 03:32N 27°52' W 082°33'0 0.0
2014-Oct-14 02:32N 27°52' W 082°33'0 0.0
2014-Oct-14 01:31N 27°52' W 082°33'0 0.0
2014-Oct-14 00:31N 27°52' W 082°33'0 0.0
2014-Oct-13 23:31N 27°52' W 082°33'0 0.0
2014-Oct-13 22:31N 27°52' W 082°33'0 0.0
2014-Oct-13 21:31N 27°52' W 082°33'0 0.0
2014-Oct-13 20:31N 27°52' W 082°33'0 0.0
2014-Oct-13 19:31N 27°52' W 082°33'0 0.3
2014-Oct-13 18:33N 27°52' W 082°33'5 4.8
2014-Oct-13 17:34N 27°47' W 082°32'9 8.8
2014-Oct-13 16:33N 27°55' W 082°27'0 0.4
2014-Oct-13 15:31N 27°55' W 082°27'0 0.0
2014-Oct-13 14:31N 27°55' W 082°27'0 0.0
2014-Oct-13 13:31N 27°55' W 082°27'0 0.0
2014-Oct-13 12:31N 27°55' W 082°27'0 0.0
2014-Oct-13 11:28N 27°55' W 082°27'0 0.0
2014-Oct-13 10:31N 27°55' W 082°27'0 0.0
2014-Oct-13 09:31N 27°55' W 082°27'0 0.0
2014-Oct-13 08:25N 27°55' W 082°27'0 0.0
2014-Oct-13 07:31N 27°55' W 082°27'0 0.0
2014-Oct-13 06:31N 27°55' W 082°27'0 0.0
2014-Oct-13 05:31N 27°55' W 082°27'0 0.0
2014-Oct-13 04:31N 27°55' W 082°27'0 0.0
2014-Oct-13 03:31N 27°55' W 082°27'0 0.0
2014-Oct-13 02:31N 27°55' W 082°27'0 0.0
2014-Oct-13 01:34N 27°55' W 082°27'0 0.0
2014-Oct-13 00:33N 27°55' W 082°27'0 0.0
2014-Oct-12 23:33N 27°55' W 082°27'0 0.0
2014-Oct-12 22:33N 27°55' W 082°27'0 0.0
2014-Oct-12 21:33N 27°55' W 082°27'0 0.0
2014-Oct-12 20:33N 27°55' W 082°27'0 0.3
2014-Oct-12 19:33N 27°55' W 082°27'9 8.6
2014-Oct-12 18:33N 27°47' W 082°31'1212.0
2014-Oct-12 17:33N 27°37' W 082°39'1212.5
2014-Oct-12 16:33N 27°36' W 082°53'1010.0
2014-Oct-12 15:32N 27°36' W 083°04'40011.7
2014-Oct-11 05:28N 29°55' W 090°12'9 9.6
2014-Oct-11 04:30N 29°57' W 090°23'4 2.5
2014-Oct-11 03:07N 29°60' W 090°24'  

Dump ship's entire track history